アスタナ国際空港の過去48時間の天気

アスタナ国際空港 (Astana)

現在時刻: 9/23 02:22 +05 (9/22 21:22 UTC) 以下の時間は現地時間です。

過去48時間のMETAR気象情報
時間 風向 風速(m/s) 視程 気温(℃) 湿度(%) 気圧(hPa) 天気現象
23 02:00 西 4 10km以上 9 93 1007
23 01:30 西 5 10km以上 9 93 1006
23 01:00 西 4 10km以上 9 93 1006
23 00:30 西 5 10km以上 9 93 1005
UACC 222100Z 26004MPS 9999 SCT013 BKN046 09/08 Q1007 R22/250550 NOSIG RMK QFE724/0966
UACC 222030Z 26005MPS 9999 SCT013 BKN046 09/08 Q1006 R22/250550 NOSIG RMK QFE724/0965
UACC 222000Z 26004MPS 9999 SCT013 BKN046 09/08 Q1006 R22/250550 NOSIG RMK QFE723/0965
UACC 221930Z 27005MPS 9999 SCT013 BKN046 09/08 Q1005 R22/250550 NOSIG RMK QFE723/0964